Time;durP1;ratioP1;P1;durP2;ratioP2;P2;SDS_P1;SDS_P2;PMS_P1;PMS_P2;Temp;Humidity;BMP_temperature;BMP_pressure;BME280_temperature;BME280_humidity;BME280_pressure;Samples;Min_cycle;Max_cycle;Signal;HPM_P1;HPM_P2
2022/03/15 00:00:25;;;;;;;103.63;44.93;;;-2.70;99.90;;;;;;4995964;28;20267;-73
2022/03/15 00:02:51;;;;;;;101.40;47.67;;;-2.70;99.90;;;;;;5014171;28;20185;-73
2022/03/15 00:05:18;;;;;;;102.80;45.50;;;-2.60;99.90;;;;;;4996483;28;20653;-74
2022/03/15 00:07:44;;;;;;;92.93;42.70;;;-2.60;99.90;;;;;;5013818;28;20596;-75
2022/03/15 00:10:12;;;;;;;96.60;43.27;;;-2.60;99.90;;;;;;4996266;28;20190;-74
2022/03/15 00:12:39;;;;;;;95.87;43.97;;;-2.60;99.90;;;;;;5012888;28;20584;-74
2022/03/15 00:15:08;;;;;;;93.90;40.33;;;-2.60;99.90;;;;;;5013751;28;20237;-74
2022/03/15 00:17:35;;;;;;;99.13;43.60;;;-2.70;99.90;;;;;;5006025;28;20675;-74
2022/03/15 00:20:02;;;;;;;90.43;41.50;;;-2.80;99.90;;;;;;5015423;28;20221;-74
2022/03/15 00:22:30;;;;;;;94.50;40.87;;;-2.80;99.90;;;;;;5033350;28;20182;-76
2022/03/15 00:24:55;;;;;;;92.03;40.57;;;-2.90;99.90;;;;;;5015955;28;20270;-75
2022/03/15 00:27:21;;;;;;;96.17;41.20;;;-3.00;99.90;;;;;;5033265;28;20634;-72
2022/03/15 00:29:47;;;;;;;93.47;41.20;;;-3.10;99.90;;;;;;5015473;28;20196;-74
2022/03/15 00:32:19;;;;;;;90.97;41.20;;;-3.10;99.90;;;;;;5033515;28;20179;-75
2022/03/15 00:34:47;;;;;;;93.10;41.17;;;-3.10;99.90;;;;;;5032834;28;20625;-74
2022/03/15 00:37:13;;;;;;;95.53;43.47;;;-3.10;99.90;;;;;;5015570;28;20215;-75
2022/03/15 00:39:39;;;;;;;97.90;43.17;;;-3.00;99.90;;;;;;5032583;28;20284;-75
2022/03/15 00:42:05;;;;;;;96.90;44.93;;;-3.00;99.90;;;;;;5025340;28;20289;-75
2022/03/15 00:44:31;;;;;;;98.00;45.57;;;-3.00;99.90;;;;;;5012992;28;20634;-75
2022/03/15 00:46:57;;;;;;;97.67;44.37;;;-2.90;99.90;;;;;;5013028;28;20282;-75
2022/03/15 00:49:23;;;;;;;102.03;46.97;;;-2.90;99.90;;;;;;4995945;28;20215;-71
2022/03/15 00:51:49;;;;;;;109.63;45.27;;;-2.90;99.90;;;;;;4995774;28;20228;-75
2022/03/15 00:54:15;;;;;;;100.23;46.47;;;-2.90;99.90;;;;;;4995883;28;20184;-75
2022/03/15 00:56:41;;;;;;;108.27;47.13;;;-3.00;99.90;;;;;;5012794;28;20634;-72
2022/03/15 00:59:08;;;;;;;100.43;44.33;;;-3.10;99.90;;;;;;5013372;28;20241;-75
2022/03/15 01:01:34;;;;;;;100.70;46.70;;;-3.20;99.90;;;;;;5012916;28;20536;-73
2022/03/15 01:04:00;;;;;;;101.13;47.10;;;-3.30;99.90;;;;;;4979309;28;20193;-74
2022/03/15 01:06:25;;;;;;;112.63;47.97;;;-3.40;99.90;;;;;;4994820;28;20260;-74
2022/03/15 01:08:51;;;;;;;110.57;47.80;;;-3.40;99.90;;;;;;5013043;28;20204;-74
2022/03/15 01:11:17;;;;;;;116.00;50.73;;;-3.50;99.90;;;;;;4995248;28;20189;-74
2022/03/15 01:13:42;;;;;;;113.70;48.70;;;-3.50;99.90;;;;;;4995034;28;20574;-74
2022/03/15 01:16:09;;;;;;;112.07;49.13;;;-3.40;99.90;;;;;;5012812;28;20524;-74
2022/03/15 01:18:35;;;;;;;109.77;47.67;;;-3.40;99.90;;;;;;5030767;28;20262;-73
2022/03/15 01:21:00;;;;;;;111.07;49.00;;;-3.40;99.90;;;;;;5014690;28;20217;-74
2022/03/15 01:23:26;;;;;;;107.47;45.33;;;-3.50;99.90;;;;;;5031539;28;20699;-74
2022/03/15 01:25:54;;;;;;;115.43;47.70;;;-3.50;99.90;;;;;;5032382;28;20203;-72
2022/03/15 01:28:20;;;;;;;102.13;46.07;;;-3.40;99.90;;;;;;5014637;28;20212;-74
2022/03/15 01:30:46;;;;;;;107.33;47.37;;;-3.40;99.90;;;;;;5014471;28;20214;-76
2022/03/15 01:33:11;;;;;;;103.43;45.80;;;-3.30;99.90;;;;;;5032165;28;20204;-74
2022/03/15 01:35:37;;;;;;;96.53;44.07;;;-3.30;99.90;;;;;;5032068;28;20539;-74
2022/03/15 01:38:03;;;;;;;111.43;50.00;;;-3.30;99.90;;;;;;5032263;28;20207;-74
2022/03/15 01:40:29;;;;;;;116.03;48.97;;;-3.30;99.90;;;;;;5032074;28;20259;-74
2022/03/15 01:42:55;;;;;;;107.73;46.20;;;-3.30;99.90;;;;;;5017158;28;20262;-74
2022/03/15 01:45:34;;;;;;;112.37;47.70;;;-3.30;99.90;;;;;;5012753;28;20616;-75
2022/03/15 01:48:00;;;;;;;109.00;47.83;;;-3.30;99.90;;;;;;5013188;28;20184;-74
2022/03/15 01:50:27;;;;;;;111.43;47.77;;;-3.30;99.90;;;;;;5012661;28;20539;-71
2022/03/15 01:52:52;;;;;;;111.57;49.73;;;-3.30;99.90;;;;;;5012795;28;20192;-75
2022/03/15 01:55:18;;;;;;;111.07;48.10;;;-3.30;99.90;;;;;;5012443;28;20192;-74
2022/03/15 01:57:44;;;;;;;114.43;49.50;;;-3.30;99.90;;;;;;5012165;28;20185;-75
2022/03/15 02:00:10;;;;;;;116.13;49.57;;;-3.40;99.90;;;;;;5012212;28;20225;-75
2022/03/15 02:02:36;;;;;;;112.67;47.93;;;-3.30;99.90;;;;;;5011932;28;20209;-74
2022/03/15 02:05:02;;;;;;;103.70;45.57;;;-3.20;99.90;;;;;;5012301;28;20228;-75
2022/03/15 02:07:28;;;;;;;108.20;46.40;;;-3.30;99.90;;;;;;5011908;28;20186;-73
2022/03/15 02:09:54;;;;;;;106.23;45.97;;;-3.40;99.90;;;;;;4978144;28;20188;-74
2022/03/15 02:12:20;;;;;;;107.77;47.43;;;-3.50;99.90;;;;;;5012187;28;20189;-74
2022/03/15 02:14:45;;;;;;;102.10;43.53;;;-3.60;99.90;;;;;;5011900;28;21087;-74
2022/03/15 02:17:11;;;;;;;109.20;47.87;;;-3.70;99.90;;;;;;5018966;28;20221;-74
2022/03/15 02:19:37;;;;;;;101.63;46.43;;;-3.60;99.90;;;;;;5013748;28;20212;-74
2022/03/15 02:22:03;;;;;;;105.70;44.53;;;-3.60;99.90;;;;;;5013907;28;20604;-74
2022/03/15 02:24:29;;;;;;;95.17;44.27;;;-3.50;99.90;;;;;;5031495;28;20260;-73
2022/03/15 02:26:55;;;;;;;99.63;44.73;;;-3.60;99.90;;;;;;5031768;28;20279;-74
2022/03/15 02:29:22;;;;;;;101.50;44.53;;;-3.60;99.90;;;;;;5032009;28;20192;-73
2022/03/15 02:31:49;;;;;;;107.33;46.97;;;-3.60;99.90;;;;;;5013462;28;20229;-74
2022/03/15 02:34:16;;;;;;;107.43;46.13;;;-3.60;99.90;;;;;;5032663;28;20219;-73
2022/03/15 02:36:44;;;;;;;100.57;46.20;;;-3.60;99.90;;;;;;5001106;28;20333;-74
2022/03/15 02:39:10;;;;;;;98.10;43.13;;;-3.70;99.90;;;;;;5001690;28;20309;-73
2022/03/15 02:41:35;;;;;;;100.67;43.37;;;-3.70;99.90;;;;;;5030808;28;20650;-74
2022/03/15 02:44:01;;;;;;;97.43;43.70;;;-3.80;99.90;;;;;;5015669;28;20181;-74
2022/03/15 02:46:29;;;;;;;89.87;41.53;;;-3.90;99.90;;;;;;5014885;28;20224;-73
2022/03/15 02:48:55;;;;;;;97.87;42.20;;;-3.90;99.90;;;;;;5015048;28;20558;-75
2022/03/15 02:51:21;;;;;;;91.93;42.30;;;-3.90;99.90;;;;;;4997578;28;20279;-75
2022/03/15 02:53:47;;;;;;;98.53;41.57;;;-3.90;99.90;;;;;;5015434;28;20279;-74
2022/03/15 02:56:13;;;;;;;99.53;43.40;;;-3.90;99.90;;;;;;4981577;28;20187;-74
2022/03/15 02:58:40;;;;;;;98.27;43.60;;;-3.80;99.90;;;;;;5015131;28;20184;-74
2022/03/15 03:01:07;;;;;;;99.87;43.67;;;-3.70;99.90;;;;;;4981510;28;20196;-73
2022/03/15 03:03:34;;;;;;;101.23;44.83;;;-3.70;99.90;;;;;;4980971;28;20284;-73
2022/03/15 03:06:00;;;;;;;107.70;44.87;;;-3.70;99.90;;;;;;5015160;28;20183;-73
2022/03/15 03:08:27;;;;;;;102.27;44.73;;;-3.80;99.90;;;;;;5015228;28;20177;-73
2022/03/15 03:10:57;;;;;;;110.73;48.13;;;-3.70;99.90;;;;;;4997529;28;20188;-73
2022/03/15 03:13:26;;;;;;;120.10;53.27;;;-3.60;99.90;;;;;;4981317;28;20192;-74
2022/03/15 03:15:57;;;;;;;108.70;50.37;;;-3.50;99.90;;;;;;5014600;28;20190;-73
2022/03/15 03:18:32;;;;;;;113.70;50.30;;;-3.40;99.90;;;;;;5031578;28;20179;-74
2022/03/15 03:21:01;;;;;;;107.67;49.77;;;-3.40;99.90;;;;;;5017673;28;20247;-72
2022/03/15 03:23:27;;;;;;;102.77;48.83;;;-3.40;99.90;;;;;;5034632;28;20188;-74
2022/03/15 03:25:54;;;;;;;112.43;49.07;;;-3.40;99.90;;;;;;5000385;28;20600;-74
2022/03/15 03:28:20;;;;;;;113.37;49.50;;;-3.40;99.90;;;;;;5034170;28;20241;-73
2022/03/15 03:30:47;;;;;;;108.67;45.30;;;-3.40;99.90;;;;;;5016531;28;20185;-74
2022/03/15 03:33:19;;;;;;;92.27;43.33;;;-3.40;99.90;;;;;;5033876;28;20192;-72
2022/03/15 03:35:45;;;;;;;96.67;44.13;;;-3.60;99.90;;;;;;5034238;28;20648;-74
2022/03/15 03:38:11;;;;;;;103.20;43.63;;;-3.60;99.90;;;;;;5016505;28;20202;-72
2022/03/15 03:40:38;;;;;;;97.03;43.57;;;-3.70;99.90;;;;;;5015350;28;20660;-73
2022/03/15 03:43:04;;;;;;;94.80;44.63;;;-3.80;99.90;;;;;;5017528;28;20246;-72
2022/03/15 03:45:30;;;;;;;103.93;46.43;;;-3.80;99.90;;;;;;5013212;28;20188;-71
2022/03/15 03:47:56;;;;;;;106.43;43.93;;;-3.70;99.90;;;;;;4996401;28;20271;-73
2022/03/15 03:50:22;;;;;;;98.30;44.63;;;-3.70;99.90;;;;;;4996818;28;20239;-73
2022/03/15 03:52:48;;;;;;;98.03;43.73;;;-3.70;99.90;;;;;;5013904;28;20211;-74
2022/03/15 03:55:14;;;;;;;100.73;43.90;;;-3.60;99.90;;;;;;5014281;28;20176;-74
2022/03/15 03:57:40;;;;;;;105.23;46.87;;;-3.70;99.90;;;;;;5013316;28;20223;-74
2022/03/15 04:00:10;;;;;;;108.77;47.13;;;-3.60;99.90;;;;;;5013975;28;20316;-72
2022/03/15 04:02:36;;;;;;;103.23;46.00;;;-3.60;99.90;;;;;;5013647;28;20188;-74
2022/03/15 04:05:02;;;;;;;104.40;47.33;;;-3.50;99.90;;;;;;4996142;28;20184;-73
2022/03/15 04:07:29;;;;;;;101.33;47.80;;;-3.40;99.90;;;;;;4996421;28;20180;-73
2022/03/15 04:09:55;;;;;;;114.80;46.97;;;-3.40;99.90;;;;;;4995966;28;20192;-73
2022/03/15 04:12:23;;;;;;;101.23;45.97;;;-3.40;99.90;;;;;;4996526;28;20189;-73
2022/03/15 04:14:49;;;;;;;101.83;47.40;;;-3.40;99.90;;;;;;5013480;28;20180;-73
2022/03/15 04:17:15;;;;;;;108.57;45.83;;;-3.40;99.90;;;;;;5021122;28;20530;-74
2022/03/15 04:19:41;;;;;;;117.77;47.77;;;-3.50;99.90;;;;;;5032537;28;20212;-73
2022/03/15 04:22:08;;;;;;;124.47;55.10;;;-3.50;99.90;;;;;;5032879;28;20208;-73
2022/03/15 04:24:33;;;;;;;117.53;53.70;;;-3.50;99.90;;;;;;5032790;28;20197;-73
2022/03/15 04:27:00;;;;;;;113.20;51.80;;;-3.70;99.90;;;;;;5015379;28;20577;-73
2022/03/15 04:29:28;;;;;;;118.93;57.20;;;-3.80;99.90;;;;;;5032764;28;20184;-73
2022/03/15 04:31:54;;;;;;;121.70;53.00;;;-3.90;99.90;;;;;;5032396;28;20201;-73
2022/03/15 04:34:20;;;;;;;132.57;57.23;;;-4.00;99.90;;;;;;5014804;28;20708;-74
2022/03/15 04:36:46;;;;;;;123.90;58.30;;;-4.00;99.90;;;;;;5032779;28;20228;-73
2022/03/15 04:39:12;;;;;;;128.33;55.27;;;-4.00;99.90;;;;;;5015249;28;20215;-73
2022/03/15 04:41:38;;;;;;;116.33;52.97;;;-4.00;99.90;;;;;;5028614;28;20197;-73
2022/03/15 04:44:05;;;;;;;118.97;52.40;;;-4.00;99.90;;;;;;5012676;28;20176;-73
2022/03/15 04:46:32;;;;;;;110.43;50.20;;;-4.00;99.90;;;;;;5012685;28;20223;-73
2022/03/15 04:48:58;;;;;;;128.93;56.70;;;-3.90;99.90;;;;;;5012725;28;20195;-73
2022/03/15 04:51:24;;;;;;;120.57;55.30;;;-3.90;99.90;;;;;;4994744;28;20271;-75
2022/03/15 04:53:51;;;;;;;129.53;59.57;;;-3.70;99.90;;;;;;4994555;28;20190;-73
2022/03/15 04:56:17;;;;;;;121.37;55.83;;;-3.50;99.90;;;;;;4995099;28;20194;-74
2022/03/15 04:58:44;;;;;;;115.93;54.53;;;-3.40;99.90;;;;;;5012277;28;20527;-73
2022/03/15 05:01:10;;;;;;;119.63;54.73;;;-3.20;99.90;;;;;;5013089;28;20207;-73
2022/03/15 05:03:35;;;;;;;121.20;55.13;;;-3.10;99.90;;;;;;5012512;28;20579;-73
2022/03/15 05:06:02;;;;;;;127.17;54.73;;;-3.00;99.90;;;;;;4995261;28;20299;-74
2022/03/15 05:08:28;;;;;;;112.53;52.93;;;-2.90;99.90;;;;;;5012725;28;20186;-74
2022/03/15 05:11:06;;;;;;;105.97;48.60;;;-2.80;99.90;;;;;;5012215;28;20190;-74
2022/03/15 05:13:40;;;;;;;111.07;49.07;;;-2.70;99.90;;;;;;4996463;28;20169;-74
2022/03/15 05:16:15;;;;;;;115.73;50.20;;;-2.60;99.90;;;;;;4994747;28;20194;-74
2022/03/15 05:18:41;;;;;;;108.10;49.60;;;-2.60;99.90;;;;;;5030820;28;20644;-73
2022/03/15 05:21:08;;;;;;;102.93;44.60;;;-2.50;99.90;;;;;;5031965;28;20196;-73
2022/03/15 05:23:34;;;;;;;101.50;46.00;;;-2.30;99.90;;;;;;5013584;28;20190;-74
2022/03/15 05:26:00;;;;;;;98.97;46.20;;;-2.20;99.90;;;;;;5032011;28;20744;-75
2022/03/15 05:28:27;;;;;;;100.00;45.37;;;-2.00;99.90;;;;;;5031571;28;20181;-75
2022/03/15 05:30:53;;;;;;;91.10;43.33;;;-1.90;99.90;;;;;;5014168;28;20192;-75
2022/03/15 05:33:18;;;;;;;90.73;44.73;;;-1.80;99.90;;;;;;5031660;28;20634;-75
2022/03/15 05:35:44;;;;;;;100.60;44.43;;;-1.70;99.90;;;;;;5031179;28;20182;-78
2022/03/15 05:38:10;;;;;;;100.60;45.00;;;-1.60;99.90;;;;;;5013428;28;20200;-74
2022/03/15 05:40:36;;;;;;;95.93;43.83;;;-1.50;99.90;;;;;;5031261;28;20241;-74
2022/03/15 05:43:02;;;;;;;94.00;44.40;;;-1.40;99.90;;;;;;4997308;28;20184;-74
2022/03/15 05:45:28;;;;;;;90.27;39.83;;;-1.30;99.90;;;;;;4997727;28;20505;-62
2022/03/15 05:47:54;;;;;;;89.83;41.03;;;-1.20;99.90;;;;;;5029939;28;20668;-61
2022/03/15 05:50:20;;;;;;;94.27;41.13;;;-1.10;99.90;;;;;;5029465;28;20186;-71
2022/03/15 05:52:46;;;;;;;84.43;39.43;;;-1.00;99.90;;;;;;5024795;28;20197;-72
2022/03/15 05:55:12;;;;;;;92.97;39.97;;;-0.90;99.90;;;;;;5023025;28;20210;-63
2022/03/15 05:57:39;;;;;;;83.33;39.07;;;-0.80;99.90;;;;;;5020489;28;20194;-62
2022/03/15 06:00:06;;;;;;;90.17;42.53;;;-0.60;99.90;;;;;;5020479;28;20304;-68
2022/03/15 06:02:32;;;;;;;83.87;38.93;;;-0.50;99.90;;;;;;5020555;28;20191;-69
2022/03/15 06:04:59;;;;;;;83.30;38.77;;;-0.40;99.90;;;;;;5018837;28;20194;-68
2022/03/15 06:07:27;;;;;;;82.07;40.30;;;-0.20;99.90;;;;;;5019691;28;20191;-67
2022/03/15 06:09:53;;;;;;;71.27;35.60;;;0.00;99.90;;;;;;5020248;28;20213;-68
2022/03/15 06:12:20;;;;;;;81.27;38.83;;;0.20;99.90;;;;;;5024065;28;20253;-71
2022/03/15 06:14:47;;;;;;;70.33;34.23;;;0.40;99.90;;;;;;5022453;28;20186;-69
2022/03/15 06:17:13;;;;;;;68.33;32.07;;;0.70;99.90;;;;;;5023048;28;20203;-68
2022/03/15 06:19:39;;;;;;;60.53;32.13;;;0.80;99.90;;;;;;5023888;28;20215;-68
2022/03/15 06:22:04;;;;;;;70.73;34.20;;;1.10;99.90;;;;;;5023422;28;20214;-60
2022/03/15 06:24:31;;;;;;;68.40;32.43;;;1.40;99.90;;;;;;5022913;28;20189;-60
2022/03/15 06:26:58;;;;;;;66.00;30.90;;;1.60;99.90;;;;;;5023043;28;20610;-62
2022/03/15 06:29:25;;;;;;;248.43;115.60;;;1.70;99.90;;;;;;5005797;28;20534;-67
2022/03/15 06:31:53;;;;;;;56.57;28.17;;;1.90;99.90;;;;;;5023690;28;20185;-70
2022/03/15 06:34:20;;;;;;;48.80;25.30;;;1.90;99.90;;;;;;5022779;28;20210;-62
2022/03/15 06:36:46;;;;;;;54.37;24.33;;;1.90;99.90;;;;;;5022850;28;20188;-63
2022/03/15 06:39:12;;;;;;;43.13;23.17;;;2.00;99.90;;;;;;5021693;28;20596;-65
2022/03/15 06:41:40;;;;;;;48.30;24.57;;;2.10;99.90;;;;;;5023486;28;20201;-61
2022/03/15 06:44:07;;;;;;;48.10;21.60;;;2.30;99.90;;;;;;5022075;28;20651;-63
2022/03/15 06:46:33;;;;;;;44.07;22.87;;;2.40;99.90;;;;;;5004626;28;20583;-61
2022/03/15 06:48:59;;;;;;;44.07;21.20;;;2.60;99.90;;;;;;5023398;28;20199;-66
2022/03/15 06:51:25;;;;;;;48.00;23.33;;;2.70;99.90;;;;;;5022974;28;20190;-63
2022/03/15 06:53:52;;;;;;;64.83;26.83;;;2.80;99.90;;;;;;5021615;28;20230;-63
2022/03/15 06:56:18;;;;;;;50.73;23.60;;;3.30;99.90;;;;;;5020549;28;20194;-69
2022/03/15 06:58:44;;;;;;;57.33;24.13;;;3.60;99.90;;;;;;5002701;28;20598;-71
2022/03/15 07:01:10;;;;;;;55.30;23.20;;;3.80;99.90;;;;;;5003163;28;20194;-68
2022/03/15 07:03:36;;;;;;;90.37;27.90;;;3.90;99.90;;;;;;5003817;28;20300;-69
2022/03/15 07:06:02;;;;;;;85.80;33.17;;;4.20;99.90;;;;;;5021062;28;20639;-68
2022/03/15 07:08:28;;;;;;;94.70;42.17;;;4.60;99.90;;;;;;5020853;28;20329;-69
2022/03/15 07:10:54;;;;;;;102.50;42.57;;;4.70;99.90;;;;;;5005789;28;20579;-68
2022/03/15 07:13:20;;;;;;;104.07;43.60;;;5.10;99.90;;;;;;5021987;28;20641;-67
2022/03/15 07:15:46;;;;;;;89.77;42.17;;;5.20;99.90;;;;;;5003582;28;20655;-68
2022/03/15 07:18:12;;;;;;;100.77;43.73;;;5.10;99.90;;;;;;5004142;28;20190;-68
2022/03/15 07:20:38;;;;;;;131.13;43.80;;;5.00;99.90;;;;;;5003252;28;20254;-65
2022/03/15 07:23:04;;;;;;;92.93;40.87;;;5.10;99.90;;;;;;5003613;28;20206;-67
2022/03/15 07:25:30;;;;;;;124.63;43.70;;;5.30;99.90;;;;;;5021598;28;20208;-63
2022/03/15 07:27:57;;;;;;;105.27;42.03;;;5.30;99.90;;;;;;5022737;28;20189;-62
2022/03/15 07:30:23;;;;;;;102.87;39.93;;;5.40;99.90;;;;;;5022076;28;20189;-63
2022/03/15 07:32:49;;;;;;;93.93;35.37;;;5.50;99.90;;;;;;5003951;28;20209;-66
2022/03/15 07:35:16;;;;;;;89.07;36.03;;;5.60;99.90;;;;;;5022186;28;20189;-68
2022/03/15 07:37:50;;;;;;;74.00;34.47;;;5.50;99.90;;;;;;5022427;28;20227;-66
2022/03/15 07:40:15;;;;;;;79.77;36.23;;;5.30;99.90;;;;;;5021214;28;20223;-69
2022/03/15 07:42:41;;;;;;;82.37;39.03;;;5.10;99.90;;;;;;5003908;28;20710;-69
2022/03/15 07:45:07;;;;;;;87.90;38.13;;;5.00;99.90;;;;;;5021796;28;20187;-70
2022/03/15 07:47:33;;;;;;;132.90;42.23;;;5.10;99.90;;;;;;5004561;28;20240;-68
2022/03/15 07:49:59;;;;;;;107.13;41.40;;;5.40;99.90;;;;;;5021394;28;20242;-70
2022/03/15 07:52:25;;;;;;;103.43;41.57;;;5.40;99.90;;;;;;5022307;28;20205;-70
2022/03/15 07:54:51;;;;;;;90.83;40.20;;;5.70;99.90;;;;;;5002389;28;20193;-69
2022/03/15 07:57:16;;;;;;;122.87;46.07;;;5.90;99.90;;;;;;5004778;28;20198;-69
2022/03/15 07:59:42;;;;;;;109.23;43.80;;;6.30;99.90;;;;;;5003538;28;20525;-70
2022/03/15 08:02:08;;;;;;;107.93;40.80;;;6.60;99.90;;;;;;5003586;28;20202;-69
2022/03/15 08:04:34;;;;;;;164.03;46.97;;;6.70;99.90;;;;;;5004911;28;20711;-68
2022/03/15 08:07:00;;;;;;;48.53;23.60;;;6.80;99.90;;;;;;5021445;28;20191;-69
2022/03/15 08:09:26;;;;;;;59.80;27.00;;;6.70;99.30;;;;;;5019795;28;20203;-70
2022/03/15 08:11:51;;;;;;;66.60;26.20;;;6.70;98.10;;;;;;5020686;28;20226;-67
2022/03/15 08:14:17;;;;;;;100.57;29.87;;;6.70;98.30;;;;;;5001720;28;21028;-68
2022/03/15 08:16:43;;;;;;;74.97;25.77;;;6.80;98.50;;;;;;5001641;28;20674;-68
2022/03/15 08:19:09;;;;;;;71.03;25.60;;;6.70;98.40;;;;;;5021556;28;20210;-69
2022/03/15 08:21:36;;;;;;;60.27;24.33;;;7.00;98.40;;;;;;5023605;28;20187;-69
2022/03/15 08:24:02;;;;;;;68.30;23.87;;;7.20;98.20;;;;;;4989523;28;20187;-69
2022/03/15 08:26:27;;;;;;;49.80;21.90;;;7.30;96.90;;;;;;5021561;28;20536;-66
2022/03/15 08:28:53;;;;;;;74.67;25.10;;;7.50;96.20;;;;;;5021560;28;20516;-67
2022/03/15 08:31:19;;;;;;;53.77;22.13;;;7.60;96.30;;;;;;5002930;28;20195;-68
2022/03/15 08:33:45;;;;;;;57.77;22.10;;;7.60;95.50;;;;;;5020798;28;20195;-68
2022/03/15 08:36:11;;;;;;;60.50;23.33;;;7.70;95.30;;;;;;5021166;28;20208;-67
2022/03/15 08:38:37;;;;;;;87.23;29.23;;;7.70;95.10;;;;;;5021146;28;20374;-68
2022/03/15 08:41:04;;;;;;;100.47;38.90;;;7.90;95.50;;;;;;5003587;28;20754;-69
2022/03/15 08:43:30;;;;;;;103.77;37.17;;;8.00;95.50;;;;;;5021619;28;20198;-68
2022/03/15 08:45:56;;;;;;;90.53;37.30;;;7.80;96.60;;;;;;5020355;28;20200;-68
2022/03/15 08:48:22;;;;;;;73.87;28.13;;;8.00;97.20;;;;;;5020966;28;20679;-69
2022/03/15 08:50:48;;;;;;;58.97;27.07;;;8.20;95.50;;;;;;5020708;28;20195;-69
2022/03/15 08:53:13;;;;;;;95.53;32.13;;;8.40;94.60;;;;;;5020790;28;20525;-69
2022/03/15 08:55:39;;;;;;;101.33;33.27;;;8.50;93.30;;;;;;5019352;28;20219;-69
2022/03/15 08:58:05;;;;;;;64.33;27.53;;;8.40;94.20;;;;;;5019969;28;20189;-70
2022/03/15 09:00:31;;;;;;;58.97;24.80;;;8.40;92.70;;;;;;5020258;28;20363;-71
2022/03/15 09:02:57;;;;;;;50.70;22.30;;;8.30;91.00;;;;;;5004350;28;20246;-68
2022/03/15 09:05:23;;;;;;;44.23;22.50;;;8.20;89.70;;;;;;5019959;28;20615;-71
2022/03/15 09:07:53;;;;;;;74.17;23.80;;;8.20;88.00;;;;;;5020598;28;20601;-71
2022/03/15 09:10:20;;;;;;;38.43;19.80;;;8.10;86.00;;;;;;5019041;28;20238;-66
2022/03/15 09:12:46;;;;;;;42.77;19.70;;;8.30;84.20;;;;;;5021625;28;20246;-65
2022/03/15 09:15:12;;;;;;;36.80;18.63;;;8.40;82.80;;;;;;5003004;28;20277;-69
2022/03/15 09:17:38;;;;;;;33.50;17.43;;;8.50;77.70;;;;;;5020513;28;20186;-71
2022/03/15 09:20:05;;;;;;;54.97;17.83;;;8.60;74.80;;;;;;5020297;28;20863;-70
2022/03/15 09:22:31;;;;;;;33.27;15.90;;;8.70;73.40;;;;;;5003196;28;20201;-63
2022/03/15 09:24:57;;;;;;;28.00;13.70;;;8.70;70.30;;;;;;5001720;28;20695;-63
2022/03/15 09:27:23;;;;;;;29.80;16.03;;;8.60;69.60;;;;;;5001282;28;20204;-65
2022/03/15 09:29:49;;;;;;;37.17;16.30;;;8.60;69.30;;;;;;5020119;28;20206;-68
2022/03/15 09:32:15;;;;;;;30.73;16.23;;;8.60;68.90;;;;;;5003089;28;20197;-66
2022/03/15 09:34:43;;;;;;;35.27;16.10;;;8.70;69.60;;;;;;4986693;28;20684;-65
2022/03/15 09:37:09;;;;;;;32.73;16.40;;;8.70;67.90;;;;;;5019599;28;20197;-61
2022/03/15 09:39:35;;;;;;;45.63;18.07;;;8.80;69.40;;;;;;5001624;28;20231;-68
2022/03/15 09:42:07;;;;;;;37.07;16.20;;;8.80;68.10;;;;;;5019509;28;20192;-67
2022/03/15 09:44:35;;;;;;;35.60;16.50;;;8.90;67.60;;;;;;5018945;28;20181;-69
2022/03/15 09:47:05;;;;;;;40.37;18.83;;;9.00;67.20;;;;;;5020568;28;20302;-62
2022/03/15 09:49:33;;;;;;;45.70;19.23;;;9.00;69.40;;;;;;5019889;28;20564;-66
2022/03/15 09:51:59;;;;;;;41.77;18.47;;;9.10;65.90;;;;;;5018896;28;20198;-66
2022/03/15 09:54:27;;;;;;;32.40;15.43;;;9.30;66.00;;;;;;5019192;28;20199;-66
2022/03/15 09:56:54;;;;;;;27.40;15.63;;;9.40;63.60;;;;;;5019122;28;20193;-67
2022/03/15 09:59:22;;;;;;;29.37;14.83;;;9.40;62.80;;;;;;5019952;28;20661;-68
2022/03/15 10:01:51;;;;;;;38.70;16.20;;;9.40;60.90;;;;;;5019052;28;20195;-67
2022/03/15 10:04:18;;;;;;;32.43;14.93;;;9.40;61.10;;;;;;5019476;28;20192;-69
2022/03/15 10:06:44;;;;;;;37.23;16.70;;;9.50;61.20;;;;;;5019222;28;20750;-68
2022/03/15 10:09:11;;;;;;;33.23;15.70;;;9.60;62.10;;;;;;5017735;28;20669;-66
2022/03/15 10:11:37;;;;;;;39.03;16.53;;;9.70;61.80;;;;;;5020158;28;20252;-68
2022/03/15 10:14:04;;;;;;;30.87;15.30;;;9.80;61.40;;;;;;5019469;28;20265;-73
2022/03/15 10:16:35;;;;;;;42.80;18.23;;;9.90;61.80;;;;;;5019702;28;20205;-62
2022/03/15 10:19:02;;;;;;;37.90;18.23;;;9.90;62.30;;;;;;5018448;28;20188;-70
2022/03/15 10:21:49;;;;;;;41.37;18.53;;;10.00;62.50;;;;;;5020069;28;20274;-72
2022/03/15 10:24:22;;;;;;;37.07;16.20;;;10.20;62.80;;;;;;5019365;28;20298;-74
2022/03/15 10:26:50;;;;;;;43.93;18.03;;;10.10;61.70;;;;;;5018314;28;20265;-74
2022/03/15 10:29:17;;;;;;;27.93;14.43;;;10.00;61.50;;;;;;5016761;28;20190;-73
2022/03/15 10:31:45;;;;;;;28.23;14.93;;;10.00;60.10;;;;;;5017443;28;20191;-73
2022/03/15 10:34:12;;;;;;;32.13;13.37;;;10.00;58.40;;;;;;4999334;28;20193;-75
2022/03/15 10:36:46;;;;;;;29.33;12.17;;;10.10;56.80;;;;;;5016954;28;20206;-74
2022/03/15 10:39:15;;;;;;;29.67;10.93;;;10.10;53.50;;;;;;5016610;28;20281;-74
2022/03/15 10:41:46;;;;;;;17.87;8.97;;;10.30;53.20;;;;;;5017431;28;20185;-73
2022/03/15 10:44:26;;;;;;;23.80;9.50;;;10.30;50.80;;;;;;5018306;28;20237;-74
2022/03/15 10:47:02;;;;;;;17.17;9.73;;;10.30;50.10;;;;;;5018199;28;20741;-75
2022/03/15 10:49:29;;;;;;;21.33;9.03;;;10.20;49.20;;;;;;5011341;28;20168;-75
2022/03/15 10:51:55;;;;;;;27.33;9.93;;;10.40;49.40;;;;;;5000704;28;20650;-73
2022/03/15 10:54:26;;;;;;;21.90;10.23;;;10.50;49.10;;;;;;5002183;28;20270;-69
2022/03/15 10:57:01;;;;;;;26.60;10.47;;;10.60;49.40;;;;;;5039662;28;20188;-72
2022/03/15 10:59:27;;;;;;;22.63;9.17;;;10.70;48.80;;;;;;5031749;28;20204;-71
2022/03/15 11:01:54;;;;;;;26.03;10.23;;;10.90;48.60;;;;;;5031646;28;20595;-70
2022/03/15 11:04:20;;;;;;;17.30;9.23;;;10.90;48.00;;;;;;5033988;28;20177;-74
2022/03/15 11:06:48;;;;;;;20.03;8.70;;;10.80;47.20;;;;;;5033087;28;20178;-74
2022/03/15 11:09:28;;;;;;;16.37;9.20;;;10.70;46.70;;;;;;5032887;28;20207;-73
2022/03/15 11:12:06;;;;;;;18.90;8.73;;;10.70;46.80;;;;;;5033314;28;20608;-63
2022/03/15 11:14:51;;;;;;;26.13;10.07;;;10.60;46.50;;;;;;5014464;28;20225;-67
2022/03/15 11:17:22;;;;;;;15.90;8.00;;;10.50;46.10;;;;;;4976583;28;20247;-66
2022/03/15 11:19:55;;;;;;;13.37;7.93;;;10.60;45.90;;;;;;5020441;28;20269;-63
2022/03/15 11:22:24;;;;;;;19.77;8.10;;;10.70;45.90;;;;;;5020268;28;20242;-68
2022/03/15 11:25:18;;;;;;;19.00;8.80;;;10.90;45.90;;;;;;5019999;28;20185;-67
2022/03/15 11:27:46;;;;;;;15.93;7.73;;;11.20;46.70;;;;;;5020529;28;20291;-67
2022/03/15 11:30:17;;;;;;;14.57;7.53;;;11.40;45.80;;;;;;5020242;28;20220;-67
2022/03/15 11:32:43;;;;;;;20.27;8.73;;;11.40;45.00;;;;;;5003953;28;20255;-64
2022/03/15 11:35:13;;;;;;;16.43;8.97;;;11.50;45.30;;;;;;5003856;28;20207;-64
2022/03/15 11:37:41;;;;;;;29.37;10.33;;;11.60;44.50;;;;;;5021483;28;20644;-66
2022/03/15 11:40:10;;;;;;;17.20;8.17;;;11.90;45.50;;;;;;5020647;28;20210;-61
2022/03/15 11:42:42;;;;;;;17.20;9.40;;;12.00;44.70;;;;;;5021240;28;20200;-63
2022/03/15 11:45:28;;;;;;;20.83;9.63;;;12.20;45.20;;;;;;5021183;28;20608;-62
2022/03/15 11:47:57;;;;;;;16.23;8.97;;;12.50;44.60;;;;;;5020847;28;20322;-63
2022/03/15 11:50:52;;;;;;;19.70;9.40;;;12.50;44.20;;;;;;5021545;28;20186;-64
2022/03/15 11:53:43;;;;;;;15.43;9.43;;;12.80;44.70;;;;;;5020899;28;20270;-64
2022/03/15 11:56:26;;;;;;;19.67;9.93;;;12.70;45.50;;;;;;5004546;28;20187;-63
2022/03/15 11:58:57;;;;;;;17.23;9.10;;;13.60;44.80;;;;;;5019969;28;20177;-67
2022/03/15 12:01:23;;;;;;;26.50;10.40;;;15.10;42.40;;;;;;5021287;28;20203;-62
2022/03/15 12:03:57;;;;;;;27.17;10.53;;;16.40;40.40;;;;;;5021267;28;20187;-63
2022/03/15 12:06:26;;;;;;;17.20;10.50;;;17.90;39.50;;;;;;5019980;28;20187;-61
2022/03/15 12:08:57;;;;;;;28.90;10.83;;;18.20;37.60;;;;;;5000582;28;20186;-67
2022/03/15 12:11:33;;;;;;;18.77;10.57;;;18.40;36.50;;;;;;5020572;28;20584;-69
2022/03/15 12:14:05;;;;;;;20.73;10.13;;;19.40;37.00;;;;;;5020156;28;20728;-65
2022/03/15 12:16:37;;;;;;;30.25;10.63;;;20.50;35.60;;;;;;5019751;28;20217;-63
2022/03/15 12:21:58;;;;;;;20.48;11.00;;;20.70;32.80;;;;;;5003474;28;20287;-65
2022/03/15 12:24:37;;;;;;;19.90;11.00;;;21.20;33.90;;;;;;5000318;28;20192;-65
2022/03/15 12:27:11;;;;;;;18.75;9.98;;;22.40;32.10;;;;;;5018964;28;20201;-63
2022/03/15 12:29:37;;;;;;;20.92;10.90;;;22.70;30.40;;;;;;5018772;28;20241;-65
2022/03/15 12:32:17;;;;;;;16.58;10.70;;;21.30;30.60;;;;;;5001621;28;20303;-63